Time;durP1;ratioP1;P1;durP2;ratioP2;P2;SDS_P1;SDS_P2;PMS_P1;PMS_P2;Temp;Humidity;BMP_temperature;BMP_pressure;BME280_temperature;BME280_humidity;BME280_pressure;Samples;Min_cycle;Max_cycle;Signal;HPM_P1;HPM_P2
2022/06/17 00:00:52;;;;;;;0.40;0.40;;;;;;;11.50;68.31;98995.22;4730398;30;20044;-94
2022/06/17 00:03:25;;;;;;;0.40;0.40;;;;;;;11.48;68.37;98983.03;4748536;30;20053;-95
2022/06/17 00:05:56;;;;;;;0.35;0.35;;;;;;;11.54;68.23;98984.72;4750299;30;20061;-96
2022/06/17 00:08:31;;;;;;;0.40;0.40;;;;;;;11.52;68.33;98981.47;4727308;30;20052;-92
2022/06/17 00:11:02;;;;;;;0.40;0.40;;;;;;;11.42;68.75;98987.56;4744674;30;20403;-95
2022/06/17 00:13:29;;;;;;;0.40;0.40;;;;;;;11.53;68.31;98988.50;4747527;30;20087;-96
2022/06/17 00:16:48;;;;;;;0.40;0.40;;;;;;;11.49;68.13;98984.66;4746082;30;20053;-96
2022/06/17 00:19:18;;;;;;;0.40;0.40;;;;;;;11.49;68.28;98995.47;4751723;30;20067;-95
2022/06/17 00:21:51;;;;;;;0.40;0.40;;;;;;;11.47;68.54;98995.72;4756450;30;20121;-92
2022/06/17 00:24:27;;;;;;;0.40;0.40;;;;;;;11.44;68.79;98995.41;4742979;30;20028;-89
2022/06/17 00:26:54;;;;;;;0.40;0.40;;;;;;;11.39;69.00;98996.16;4750571;30;20083;-94
2022/06/17 00:29:27;;;;;;;0.40;0.40;;;;;;;11.39;69.03;98998.03;4749781;30;20056;-96
2022/06/17 00:31:54;;;;;;;0.40;0.40;;;;;;;11.34;68.91;99004.19;4746247;30;20084;-96
2022/06/17 00:34:23;;;;;;;0.40;0.40;;;;;;;11.36;69.13;98999.34;4744011;30;20056;-95
2022/06/17 00:36:55;;;;;;;0.40;0.40;;;;;;;11.33;69.10;98999.84;4743517;30;20056;-96
2022/06/17 00:39:27;;;;;;;0.40;0.40;;;;;;;11.29;69.23;98998.72;4771528;30;20145;-95
2022/06/17 00:42:05;;;;;;;0.40;0.40;;;;;;;11.21;69.78;99002.66;4747617;30;20084;-95
2022/06/17 00:45:19;;;;;;;0.40;0.40;;;;;;;11.31;69.23;99003.88;4755532;30;20058;-96
2022/06/17 00:48:24;;;;;;;0.40;0.40;;;;;;;11.40;68.69;99005.09;4776336;30;20056;-94
2022/06/17 00:52:05;;;;;;;0.40;0.40;;;;;;;11.36;68.84;99007.47;4745347;30;20095;-95
2022/06/17 01:00:23;;;;;;;0.50;0.50;;;;;;;11.28;69.04;99007.88;4743516;30;20093;-93
2022/06/17 01:03:34;;;;;;;0.40;0.40;;;;;;;11.15;69.72;99016.34;4729423;30;20060;-95
2022/06/17 01:06:30;;;;;;;0.40;0.40;;;;;;;11.08;69.84;99008.41;4739526;30;20100;-96
2022/06/17 01:11:55;;;;;;;0.40;0.40;;;;;;;11.02;70.24;99010.22;4723983;30;20069;-95
2022/06/17 01:14:23;;;;;;;0.40;0.40;;;;;;;10.97;70.63;99012.84;4724636;30;20045;-96
2022/06/17 01:16:52;;;;;;;0.40;0.40;;;;;;;11.01;70.60;99005.06;4740372;30;20089;-96
2022/06/17 01:19:38;;;;;;;0.40;0.40;;;;;;;11.07;70.55;99009.50;4741449;30;20045;-96
2022/06/17 01:22:27;;;;;;;0.40;0.40;;;;;;;11.09;70.53;99003.81;4734116;30;20056;-96
2022/06/17 01:25:08;;;;;;;0.40;0.40;;;;;;;11.12;70.29;99004.16;4726854;30;20058;-94
2022/06/17 01:27:48;;;;;;;0.50;0.50;;;;;;;11.20;70.21;99003.72;4725785;30;20051;-95
2022/06/17 01:30:28;;;;;;;0.40;0.40;;;;;;;11.19;70.16;99002.09;4710922;30;20073;-95
2022/06/17 01:32:58;;;;;;;0.40;0.40;;;;;;;11.13;70.46;98997.69;4724129;30;20105;-96
2022/06/17 01:35:53;;;;;;;0.40;0.40;;;;;;;11.14;70.65;99003.91;4740073;30;20037;-95
2022/06/17 01:39:37;;;;;;;0.50;0.50;;;;;;;11.04;70.89;99010.81;4753886;30;20158;-92
2022/06/17 01:42:29;;;;;;;0.40;0.40;;;;;;;11.05;70.95;99015.13;4998746;24;20055;-93
2022/06/17 01:50:31;;;;;;;0.50;0.50;;;;;;;11.25;70.26;99019.19;4738158;30;20037;-95
2022/06/17 01:55:10;;;;;;;0.40;0.40;;;;;;;11.40;69.35;99030.22;4688385;30;20068;-95
2022/06/17 01:59:05;;;;;;;0.40;0.40;;;;;;;11.26;69.43;99005.44;4659577;30;20062;-96
2022/06/17 02:01:54;;;;;;;0.40;0.40;;;;;;;11.28;69.44;99010.59;4634854;31;20083;-96
2022/06/17 02:04:31;;;;;;;0.40;0.40;;;;;;;11.30;70.19;99026.56;4795858;24;20063;-96
2022/06/17 02:07:38;;;;;;;0.40;0.40;;;;;;;11.26;70.23;99018.13;4794477;29;20086;-91
2022/06/17 02:14:24;;;;;;;;;;;;;;;11.32;69.63;99019.00;4896552;24;20059;-90
2022/06/17 02:20:08;;;;;;;0.40;0.40;;;;;;;11.35;69.52;99008.53;4785641;24;20036;-84
2022/06/17 02:26:11;;;;;;;0.40;0.40;;;;;;;11.63;69.30;99018.34;5033963;24;20043;-90
2022/06/17 02:50:49;;;;;;;0.40;0.40;;;;;;;12.21;68.04;99015.28;5576530;24;20048;-93
2022/06/17 02:53:21;;;;;;;0.40;0.40;;;;;;;12.31;68.00;99012.66;4759482;30;20508;-94
2022/06/17 02:55:48;;;;;;;0.40;0.40;;;;;;;12.28;68.06;99015.88;4765181;30;20063;-90
2022/06/17 02:59:05;;;;;;;0.40;0.40;;;;;;;12.31;68.03;99020.78;4793960;29;20091;-96
2022/06/17 03:04:43;;;;;;;0.30;0.30;;;;;;;12.42;67.31;99008.97;4549539;27;20513;-88
2022/06/17 03:07:13;;;;;;;0.50;0.50;;;;;;;12.52;66.97;99017.19;4769287;30;20056;-89
2022/06/17 03:09:41;;;;;;;0.40;0.40;;;;;;;12.68;66.74;99028.16;4769660;30;20078;-89
2022/06/17 03:12:13;;;;;;;0.40;0.40;;;;;;;12.83;66.22;99025.56;4767829;30;20129;-90
2022/06/17 03:14:47;;;;;;;0.40;0.40;;;;;;;12.92;65.80;99021.31;4732787;30;20056;-88
2022/06/17 03:17:16;;;;;;;;;;;;;;;12.96;65.86;99029.72;4790200;29;20040;-85
2022/06/17 03:19:52;;;;;;;0.40;0.40;;;;;;;13.07;65.46;99023.34;4776371;30;19941;-89
2022/06/17 03:22:27;;;;;;;0.40;0.40;;;;;;;13.05;65.54;99021.97;4781733;30;20329;-94
2022/06/17 03:25:14;;;;;;;0.40;0.40;;;;;;;13.00;65.71;99020.84;4773643;30;20064;-95
2022/06/17 03:27:49;;;;;;;0.40;0.40;;;;;;;13.04;65.74;99021.16;4745212;30;20060;-90
2022/06/17 03:30:29;;;;;;;0.40;0.40;;;;;;;13.17;66.49;99028.00;4768809;30;20062;-88
2022/06/17 03:33:09;;;;;;;0.30;0.30;;;;;;;13.16;65.94;99031.78;4773882;30;20060;-92
2022/06/17 03:35:40;;;;;;;0.40;0.40;;;;;;;13.18;65.64;99021.50;4786069;24;20102;-95
2022/06/17 03:38:45;;;;;;;0.40;0.40;;;;;;;13.37;66.05;99025.44;4772639;30;20067;-96
2022/06/17 03:41:39;;;;;;;0.50;0.50;;;;;;;13.44;66.13;99028.75;4755906;29;20036;-89
2022/06/17 03:44:23;;;;;;;0.50;0.50;;;;;;;13.43;65.65;99004.59;4751623;30;20083;-95
2022/06/17 03:47:38;;;;;;;0.40;0.40;;;;;;;13.52;65.32;98996.78;5030800;24;20131;-93
2022/06/17 03:50:08;;;;;;;0.40;0.40;;;;;;;13.77;65.31;99028.63;4761492;30;20518;-90
2022/06/17 03:53:04;;;;;;;0.40;0.40;;;;;;;13.86;65.56;99029.75;4770463;30;20069;-95
2022/06/17 03:56:02;;;;;;;0.40;0.40;;;;;;;14.10;64.71;99032.81;4774792;29;20159;-95
2022/06/17 03:58:40;;;;;;;0.40;0.40;;;;;;;14.04;63.94;99036.59;4770066;30;20183;-92
2022/06/17 04:01:27;;;;;;;0.40;0.40;;;;;;;14.07;64.85;99038.78;4756568;30;20495;-90
2022/06/17 04:04:12;;;;;;;0.40;0.40;;;;;;;14.17;64.16;99033.38;4774578;30;20068;-94
2022/06/17 04:06:41;;;;;;;0.40;0.40;;;;;;;14.21;64.01;99026.34;4763002;30;20091;-95
2022/06/17 04:09:21;;;;;;;0.40;0.40;;;;;;;14.31;63.83;99034.50;4757373;30;20051;-91
2022/06/17 04:11:57;;;;;;;0.40;0.40;;;;;;;14.43;64.14;99033.44;4434376;30;10000842;-91
2022/06/17 04:14:30;;;;;;;0.40;0.40;;;;;;;14.54;64.35;99032.41;4802668;24;20162;-93
2022/06/17 04:17:23;;;;;;;0.43;0.43;;;;;;;14.75;64.10;99025.09;4730162;30;20064;-92
2022/06/17 04:19:59;;;;;;;0.40;0.40;;;;;;;14.84;63.36;99022.66;4733078;30;20060;-93
2022/06/17 04:22:35;;;;;;;0.40;0.40;;;;;;;14.83;63.46;99027.25;4750572;30;20057;-95
2022/06/17 04:25:42;;;;;;;0.40;0.40;;;;;;;14.98;63.42;99020.19;4741162;30;20057;-92
2022/06/17 04:28:12;;;;;;;;;;;;;;;15.04;63.46;99017.19;4724164;30;20060;-94
2022/06/17 04:31:03;;;;;;;0.40;0.40;;;;;;;15.11;63.47;99017.72;4738720;30;19930;-93
2022/06/17 04:33:39;;;;;;;0.40;0.40;;;;;;;15.31;62.83;99016.88;4734172;30;20057;-89
2022/06/17 04:36:59;;;;;;;0.40;0.40;;;;;;;15.48;62.51;99016.56;4739831;30;20057;-94
2022/06/17 04:39:39;;;;;;;0.40;0.40;;;;;;;15.66;62.04;99012.44;4704797;30;20554;-91
2022/06/17 04:42:36;;;;;;;0.40;0.40;;;;;;;15.80;61.56;99009.97;4735298;30;20456;-93
2022/06/17 04:45:24;;;;;;;0.40;0.40;;;;;;;15.90;61.42;99009.94;4736224;30;20071;-94
2022/06/17 04:47:59;;;;;;;0.40;0.40;;;;;;;16.00;61.33;99014.47;4739389;30;20061;-94
2022/06/17 04:50:30;;;;;;;0.40;0.40;;;;;;;16.00;61.45;99014.47;4739285;30;20107;-92
2022/06/17 04:52:58;;;;;;;0.40;0.40;;;;;;;16.13;61.00;99010.31;4735850;30;20151;-93
2022/06/17 04:56:03;;;;;;;0.40;0.40;;;;;;;16.15;59.75;99011.69;4723642;30;20076;-93
2022/06/17 04:58:44;;;;;;;0.40;0.40;;;;;;;16.00;60.35;99012.59;4725291;30;20061;-95
2022/06/17 05:01:19;;;;;;;0.40;0.40;;;;;;;15.98;60.04;99008.53;4737727;30;20053;-92
2022/06/17 05:04:06;;;;;;;0.30;0.30;;;;;;;15.99;60.36;99016.41;4739189;30;20057;-93
2022/06/17 05:06:39;;;;;;;0.40;0.40;;;;;;;16.04;60.21;99019.09;4740334;30;20056;-93
2022/06/17 05:09:20;;;;;;;0.30;0.30;;;;;;;16.19;59.37;99020.13;4742045;30;20552;-91
2022/06/17 05:11:51;;;;;;;0.40;0.40;;;;;;;16.29;59.43;99014.59;4740494;30;20110;-94
2022/06/17 05:14:38;;;;;;;0.40;0.40;;;;;;;16.47;58.67;99022.09;4744257;30;20480;-93
2022/06/17 05:17:06;;;;;;;0.32;0.32;;;;;;;16.51;58.28;99005.19;4723095;30;20184;-94
2022/06/17 05:19:39;;;;;;;0.30;0.30;;;;;;;16.65;57.79;99017.09;4725031;30;20512;-92
2022/06/17 05:22:15;;;;;;;0.40;0.40;;;;;;;16.80;57.33;99008.81;4722777;30;20091;-92
2022/06/17 05:24:45;;;;;;;0.40;0.40;;;;;;;17.01;56.39;99003.19;4724076;30;20064;-94
2022/06/17 05:27:12;;;;;;;0.40;0.40;;;;;;;17.19;55.43;98998.91;4737471;30;20052;-93
2022/06/17 05:29:39;;;;;;;0.40;0.40;;;;;;;17.27;54.52;99003.78;4735712;30;20553;-93
2022/06/17 05:32:12;;;;;;;0.40;0.40;;;;;;;17.35;52.76;98999.59;4735899;30;20052;-93
2022/06/17 05:34:41;;;;;;;0.40;0.40;;;;;;;17.45;52.06;99004.94;4739892;30;20067;-93
2022/06/17 05:37:09;;;;;;;0.40;0.40;;;;;;;17.55;52.26;99002.09;4739573;30;20079;-92
2022/06/17 05:39:40;;;;;;;0.40;0.40;;;;;;;17.68;52.30;99009.56;4740836;30;20056;-91
2022/06/17 05:42:13;;;;;;;0.40;0.40;;;;;;;17.91;51.83;98998.97;4740296;30;20060;-94
2022/06/17 05:44:41;;;;;;;0.40;0.40;;;;;;;18.10;50.02;98997.03;4743108;30;20471;-93
2022/06/17 05:47:37;;;;;;;0.40;0.40;;;;;;;18.19;49.59;98987.09;4736961;30;20060;-93
2022/06/17 05:50:21;;;;;;;0.40;0.40;;;;;;;18.32;49.63;98987.47;4742512;30;20056;-94
2022/06/17 05:53:10;;;;;;;0.30;0.30;;;;;;;18.49;50.96;99004.16;4738763;30;20052;-92
2022/06/17 05:55:44;;;;;;;0.40;0.40;;;;;;;18.31;50.28;98989.38;4734860;30;20086;-89
2022/06/17 05:58:12;;;;;;;0.30;0.30;;;;;;;18.10;50.46;98997.03;4731552;30;20556;-87
2022/06/17 06:00:41;;;;;;;0.30;0.30;;;;;;;18.13;50.74;98993.75;4741153;30;20065;-92
2022/06/17 06:03:26;;;;;;;0.40;0.40;;;;;;;18.14;51.20;98981.69;4728597;30;20057;-93
2022/06/17 06:05:58;;;;;;;0.40;0.40;;;;;;;18.30;51.62;98985.00;4760157;30;20049;-93
2022/06/17 06:08:26;;;;;;;0.40;0.40;;;;;;;18.38;51.25;98981.63;4738372;30;20068;-94
2022/06/17 06:10:57;;;;;;;0.40;0.40;;;;;;;18.38;51.50;98984.38;4745794;30;20064;-96
2022/06/17 06:13:34;;;;;;;0.30;0.30;;;;;;;18.55;50.63;98986.56;4749111;30;20052;-95
2022/06/17 06:16:02;;;;;;;0.30;0.30;;;;;;;18.44;50.89;98985.09;4751233;30;20093;-95
2022/06/17 06:18:39;;;;;;;0.40;0.40;;;;;;;18.42;51.14;98973.66;4761455;30;20091;-93
2022/06/17 06:21:12;;;;;;;0.40;0.40;;;;;;;18.49;51.14;98979.56;4744811;30;20053;-94
2022/06/17 06:23:43;;;;;;;0.30;0.30;;;;;;;18.59;51.23;98975.84;4761588;30;20075;-96
2022/06/17 06:26:24;;;;;;;0.40;0.40;;;;;;;18.87;50.49;98975.97;4749256;30;20148;-95
2022/06/17 06:29:12;;;;;;;0.40;0.40;;;;;;;18.72;50.60;98974.28;4765971;30;20067;-95
2022/06/17 06:31:41;;;;;;;0.40;0.40;;;;;;;18.58;50.55;98982.41;4752601;30;20060;-93
2022/06/17 06:34:20;;;;;;;0.40;0.40;;;;;;;18.65;50.36;98968.38;4751729;30;20124;-95
2022/06/17 06:36:47;;;;;;;0.35;0.35;;;;;;;18.84;49.96;98969.19;4747223;30;20518;-96
2022/06/17 06:39:15;;;;;;;0.30;0.30;;;;;;;18.99;49.53;98963.44;4746395;30;20060;-94
2022/06/17 06:41:42;;;;;;;0.30;0.30;;;;;;;19.17;49.61;98964.47;4766115;30;20044;-96
2022/06/17 06:44:10;;;;;;;0.40;0.40;;;;;;;19.28;49.20;98954.16;4755240;30;20056;-92
2022/06/17 06:46:44;;;;;;;;;;;;;;;19.53;49.00;98962.97;4770189;29;20083;-95
2022/06/17 06:49:34;;;;;;;0.30;0.30;;;;;;;19.44;47.94;98954.66;4749907;30;19974;-91
2022/06/17 06:52:02;;;;;;;0.30;0.30;;;;;;;19.39;47.32;98954.75;4763025;30;20117;-91
2022/06/17 06:54:29;;;;;;;0.30;0.30;;;;;;;19.33;47.13;98955.97;4754488;30;20063;-90
2022/06/17 06:57:00;;;;;;;0.30;0.30;;;;;;;19.43;46.38;98959.31;4743148;30;20075;-89
2022/06/17 06:59:50;;;;;;;0.30;0.30;;;;;;;19.34;46.45;98952.13;4739434;30;20064;-89
2022/06/17 07:02:18;;;;;;;0.30;0.30;;;;;;;19.38;46.60;98951.22;4741273;30;20053;-89
2022/06/17 07:04:46;;;;;;;0.30;0.30;;;;;;;19.65;46.49;98952.34;4745567;30;20052;-93
2022/06/17 07:07:14;;;;;;;0.30;0.30;;;;;;;20.05;46.03;98936.13;4742332;30;20063;-91
2022/06/17 07:09:41;;;;;;;0.40;0.40;;;;;;;20.26;45.40;98944.72;4740434;30;20066;-91
2022/06/17 07:12:08;;;;;;;0.40;0.40;;;;;;;20.30;45.19;98952.00;4737930;30;20049;-91
2022/06/17 07:14:36;;;;;;;0.30;0.30;;;;;;;20.44;44.95;98942.94;4738515;30;20057;-91
2022/06/17 07:17:04;;;;;;;0.30;0.30;;;;;;;20.63;44.22;98954.53;4741770;30;20115;-92
2022/06/17 07:19:32;;;;;;;0.40;0.40;;;;;;;20.83;43.23;98949.66;4742228;30;20061;-90
2022/06/17 07:22:00;;;;;;;0.40;0.40;;;;;;;20.95;43.11;98949.88;4759301;30;20037;-95
2022/06/17 07:24:27;;;;;;;0.30;0.30;;;;;;;20.97;42.79;98947.66;4753904;30;20108;-92
2022/06/17 07:26:54;;;;;;;0.30;0.30;;;;;;;20.58;43.94;98943.69;4743477;30;20060;-91
2022/06/17 07:29:21;;;;;;;0.40;0.40;;;;;;;20.52;44.17;98942.16;4737645;30;20073;-93
2022/06/17 07:31:48;;;;;;;0.40;0.40;;;;;;;21.08;43.84;98932.53;4744710;30;20053;-89
2022/06/17 07:34:16;;;;;;;0.40;0.40;;;;;;;21.60;42.72;98927.25;4738166;30;20064;-91
2022/06/17 07:42:14;;;;;;;0.30;0.30;;;;;;;21.83;40.99;98935.38;4744249;30;20277;-93
2022/06/17 07:44:42;;;;;;;0.30;0.30;;;;;;;21.36;41.50;98930.38;4747994;30;20060;-93
2022/06/17 07:47:14;;;;;;;0.30;0.30;;;;;;;21.20;41.46;98929.19;4744562;30;20096;-93
2022/06/17 07:49:43;;;;;;;0.30;0.30;;;;;;;21.05;41.33;98941.38;4743660;30;20060;-92
2022/06/17 07:52:11;;;;;;;0.40;0.40;;;;;;;21.04;41.36;98930.72;4737649;30;20158;-90
2022/06/17 07:54:38;;;;;;;0.40;0.40;;;;;;;21.35;40.80;98927.97;4745027;30;20776;-91
2022/06/17 07:57:06;;;;;;;0.50;0.50;;;;;;;21.68;39.08;98933.91;4749623;30;20060;-92
2022/06/17 07:59:34;;;;;;;0.30;0.30;;;;;;;21.25;40.25;98937.28;4740515;30;20082;-94
2022/06/17 08:02:01;;;;;;;0.40;0.40;;;;;;;21.01;41.71;98932.16;4745061;30;20063;-93
2022/06/17 08:04:28;;;;;;;0.30;0.30;;;;;;;21.05;41.20;98926.88;4739154;30;20049;-91
2022/06/17 08:06:56;;;;;;;0.30;0.30;;;;;;;20.98;41.42;98938.28;4738154;30;20045;-92
2022/06/17 08:09:28;;;;;;;0.30;0.30;;;;;;;20.70;42.42;98918.44;4745974;30;20173;-90
2022/06/17 08:11:58;;;;;;;0.30;0.30;;;;;;;20.45;43.30;98925.34;4748995;30;20152;-91
2022/06/17 08:14:28;;;;;;;0.30;0.30;;;;;;;20.29;44.21;98933.13;4750677;29;20056;-93
2022/06/17 08:16:55;;;;;;;0.30;0.30;;;;;;;20.26;44.51;98941.97;4749888;30;20041;-95
2022/06/17 08:19:22;;;;;;;0.30;0.30;;;;;;;20.01;43.08;98941.44;4746082;30;20124;-92
2022/06/17 08:21:50;;;;;;;0.25;0.25;;;;;;;19.79;44.11;98931.22;4743088;30;20091;-91
2022/06/17 08:24:25;;;;;;;0.30;0.30;;;;;;;19.77;44.68;98935.41;4735884;30;20064;-90
2022/06/17 08:26:52;;;;;;;0.30;0.30;;;;;;;19.86;44.83;98934.38;4731847;30;20059;-90
2022/06/17 08:29:20;;;;;;;0.30;0.30;;;;;;;20.03;44.77;98941.16;4733336;30;20110;-90
2022/06/17 08:34:53;;;;;;;0.30;0.30;;;;;;;20.31;44.45;98934.44;4730163;30;20147;-90
2022/06/17 08:37:20;;;;;;;0.30;0.30;;;;;;;20.52;44.29;98937.50;4731392;30;20135;-92
2022/06/17 08:39:48;;;;;;;0.30;0.30;;;;;;;20.37;44.25;98937.88;4736522;30;20136;-89
2022/06/17 08:42:36;;;;;;;0.30;0.30;;;;;;;20.17;45.27;98941.09;4733871;30;20783;-88
2022/06/17 08:45:12;;;;;;;0.30;0.30;;;;;;;19.94;46.01;98932.84;4732040;30;20071;-89
2022/06/17 08:48:08;;;;;;;0.30;0.30;;;;;;;19.67;46.20;98966.53;4736575;30;20605;-89
2022/06/17 08:50:44;;;;;;;0.20;0.20;;;;;;;17.39;55.39;98971.44;4741244;30;20068;-88
2022/06/17 08:53:23;;;;;;;0.30;0.30;;;;;;;14.84;67.32;98984.63;4735031;30;20061;-87
2022/06/17 08:56:11;;;;;;;0.30;0.30;;;;;;;13.93;69.39;98969.84;4734805;30;20060;-89
2022/06/17 08:59:24;;;;;;;0.30;0.30;;;;;;;13.80;69.39;98971.97;4734087;30;20083;-87
2022/06/17 09:01:54;;;;;;;0.40;0.40;;;;;;;14.04;67.15;98955.19;4699147;30;20053;-88
2022/06/17 09:04:21;;;;;;;0.40;0.40;;;;;;;14.79;65.83;98965.59;4713662;30;20053;-86
2022/06/17 09:06:54;;;;;;;0.40;0.40;;;;;;;15.50;65.74;98960.00;4714719;30;20076;-87
2022/06/17 09:09:34;;;;;;;0.55;0.55;;;;;;;16.29;63.21;98962.88;4717149;30;20067;-88
2022/06/17 09:12:38;;;;;;;0.60;0.60;;;;;;;17.17;60.60;98962.97;4721650;30;20491;-88
2022/06/17 09:15:05;;;;;;;0.70;0.70;;;;;;;17.87;59.26;98963.22;4721261;30;20130;-87
2022/06/17 09:18:14;;;;;;;0.60;0.60;;;;;;;18.49;57.15;98959.63;4721483;30;20058;-87
2022/06/17 09:20:43;;;;;;;0.60;0.60;;;;;;;19.19;57.55;98955.97;4709112;30;20060;-88
2022/06/17 09:23:15;;;;;;;0.60;0.60;;;;;;;19.88;57.17;98956.78;4694755;30;20064;-89
2022/06/17 09:25:46;;;;;;;0.50;0.50;;;;;;;20.35;54.14;98959.28;4724290;30;20065;-87
2022/06/17 09:28:23;;;;;;;0.70;0.70;;;;;;;21.36;53.06;98949.59;4720859;30;20266;-87
2022/06/17 09:30:56;;;;;;;0.60;0.60;;;;;;;22.00;48.74;98940.91;4719133;30;20601;-88
2022/06/17 09:33:31;;;;;;;0.50;0.50;;;;;;;21.89;48.83;98936.84;4718941;30;20056;-87
2022/06/17 09:36:11;;;;;;;0.50;0.50;;;;;;;21.84;49.06;98932.31;4722219;30;20576;-92
2022/06/17 09:39:00;;;;;;;0.50;0.50;;;;;;;22.45;49.07;98935.09;4738605;30;20685;-87
2022/06/17 09:41:35;;;;;;;0.60;0.60;;;;;;;23.10;44.14;98930.47;4738065;30;20056;-94
2022/06/17 09:44:24;;;;;;;0.50;0.50;;;;;;;23.35;44.96;98945.25;4734770;30;20111;-89
2022/06/17 09:47:13;;;;;;;0.50;0.50;;;;;;;23.16;43.02;98939.34;4403376;30;10000765;-88
2022/06/17 09:49:56;;;;;;;0.40;0.40;;;;;;;22.68;44.95;98943.97;4735640;30;20057;-88
2022/06/17 09:52:55;;;;;;;0.50;0.50;;;;;;;22.46;44.05;98942.22;4737418;30;20139;-88
2022/06/17 09:55:32;;;;;;;0.40;0.40;;;;;;;22.90;42.28;98939.41;4737009;30;20056;-91
2022/06/17 09:58:06;;;;;;;0.43;0.43;;;;;;;22.88;42.24;98936.97;4758463;29;20048;-92
2022/06/17 10:00:38;;;;;;;0.40;0.40;;;;;;;22.90;41.30;98947.66;4764744;30;20028;-91
2022/06/17 10:03:27;;;;;;;0.50;0.50;;;;;;;22.98;41.87;98924.84;4736712;30;20056;-94
2022/06/17 10:06:07;;;;;;;0.57;0.57;;;;;;;22.89;43.65;98913.84;4742371;30;20106;-92
2022/06/17 10:09:13;;;;;;;0.50;0.50;;;;;;;24.52;41.23;98921.81;4740731;30;20057;-92
2022/06/17 10:11:52;;;;;;;0.60;0.60;;;;;;;25.25;40.17;98912.94;4755149;30;20129;-94
2022/06/17 10:14:44;;;;;;;0.50;0.50;;;;;;;24.78;40.50;98894.75;4755248;30;20091;-91
2022/06/17 10:20:12;;;;;;;;;;;;;;;22.37;44.97;98915.88;4743973;30;20076;-89
2022/06/17 10:23:21;;;;;;;0.20;0.20;;;;;;;21.74;47.51;98902.41;4742695;30;19930;-94
2022/06/17 10:25:57;;;;;;;0.20;0.20;;;;;;;21.60;48.66;98888.81;4745573;30;20072;-87
2022/06/17 10:28:48;;;;;;;0.20;0.20;;;;;;;21.09;48.51;98892.16;4738880;30;20143;-89
2022/06/17 10:31:35;;;;;;;0.20;0.20;;;;;;;20.72;48.74;98895.06;4739787;30;20052;-92
2022/06/17 10:34:18;;;;;;;0.20;0.20;;;;;;;20.66;48.66;98893.59;4738593;30;20578;-92
2022/06/17 10:36:50;;;;;;;0.20;0.20;;;;;;;20.50;47.46;98901.34;4737921;30;20110;-91
2022/06/17 10:39:19;;;;;;;0.30;0.30;;;;;;;20.33;48.72;98893.00;4735684;30;20048;-92
2022/06/17 10:41:47;;;;;;;0.30;0.30;;;;;;;20.25;49.78;98891.81;4734365;30;20161;-90
2022/06/17 10:44:16;;;;;;;0.30;0.30;;;;;;;20.23;50.38;98868.59;4725139;30;20052;-90
2022/06/17 10:46:49;;;;;;;0.60;0.60;;;;;;;21.18;49.55;98874.63;4740910;30;20057;-90
2022/06/17 10:49:21;;;;;;;0.60;0.60;;;;;;;22.85;44.72;98870.78;4761131;30;20060;-92
2022/06/17 10:51:51;;;;;;;0.70;0.70;;;;;;;23.97;42.48;98865.81;4750964;30;20062;-94
2022/06/17 10:54:25;;;;;;;0.70;0.70;;;;;;;25.07;39.69;98866.16;4757163;30;20075;-88
2022/06/17 10:56:55;;;;;;;;;;;;;;;25.73;39.53;98872.59;4768772;29;20091;-93
2022/06/17 10:59:41;;;;;;;0.30;0.30;;;;;;;25.14;41.60;98854.53;4758334;30;19915;-94
2022/06/17 11:02:21;;;;;;;0.20;0.20;;;;;;;23.99;41.11;98863.53;4757944;30;20071;-91
2022/06/17 11:05:13;;;;;;;0.40;0.40;;;;;;;23.54;42.26;98875.19;4748870;30;20060;-95
2022/06/17 11:07:52;;;;;;;0.50;0.50;;;;;;;24.06;41.20;98857.50;4764891;30;20075;-93
2022/06/17 11:10:24;;;;;;;0.70;0.70;;;;;;;25.76;40.31;98846.22;4756328;30;20145;-95
2022/06/17 11:13:01;;;;;;;0.55;0.55;;;;;;;27.09;37.32;98854.22;4753099;30;20056;-94
2022/06/17 11:15:56;;;;;;;0.30;0.30;;;;;;;27.55;36.20;98842.63;4747653;30;20080;-94
2022/06/17 11:18:29;;;;;;;0.20;0.20;;;;;;;26.50;38.04;98835.69;4738867;30;20056;-94
2022/06/17 11:21:02;;;;;;;0.20;0.20;;;;;;;24.86;39.08;98846.13;4757101;30;20068;-89
2022/06/17 11:23:29;;;;;;;0.20;0.20;;;;;;;24.15;39.76;98842.47;4752459;30;20060;-90
2022/06/17 11:26:24;;;;;;;0.20;0.20;;;;;;;23.59;40.69;98839.16;4742422;30;20162;-91
2022/06/17 11:29:08;;;;;;;0.20;0.20;;;;;;;22.89;41.78;98833.25;4741302;30;20053;-89
2022/06/17 11:31:39;;;;;;;0.20;0.20;;;;;;;22.55;43.07;98832.22;4747737;30;20053;-93
2022/06/17 11:34:14;;;;;;;0.20;0.20;;;;;;;22.21;42.78;98846.84;4752583;30;20063;-93
2022/06/17 11:37:09;;;;;;;0.20;0.20;;;;;;;21.17;46.92;98848.31;4740778;30;20118;-93
2022/06/17 11:39:39;;;;;;;0.30;0.30;;;;;;;19.88;48.79;98830.81;4742414;30;20083;-93
2022/06/17 11:42:22;;;;;;;0.30;0.30;;;;;;;19.77;49.04;98829.41;4741797;30;20044;-92
2022/06/17 11:44:55;;;;;;;0.30;0.30;;;;;;;20.09;47.60;98830.31;4738156;30;20057;-94
2022/06/17 11:47:25;;;;;;;0.30;0.30;;;;;;;20.45;45.92;98838.44;4741222;30;20212;-93
2022/06/17 11:49:59;;;;;;;0.20;0.20;;;;;;;20.65;46.58;98841.81;4740061;30;20064;-92
2022/06/17 11:52:39;;;;;;;0.30;0.30;;;;;;;20.89;46.03;98842.25;4746497;30;20036;-93
2022/06/17 11:55:33;;;;;;;0.30;0.30;;;;;;;20.67;45.13;98842.31;4727169;30;20057;-92
2022/06/17 11:58:20;;;;;;;0.20;0.20;;;;;;;20.43;45.77;98834.41;4743017;30;20226;-92
2022/06/17 12:00:48;;;;;;;0.20;0.20;;;;;;;20.42;45.95;98838.28;4740414;30;20157;-93
2022/06/17 12:03:22;;;;;;;0.20;0.20;;;;;;;20.30;45.21;98834.16;4730491;30;20409;-93
2022/06/17 12:06:01;;;;;;;0.20;0.20;;;;;;;20.35;44.78;98834.03;4742538;30;20056;-93
2022/06/17 12:08:47;;;;;;;0.20;0.20;;;;;;;20.35;44.93;98834.03;4745034;30;20083;-91
2022/06/17 12:11:23;;;;;;;0.20;0.20;;;;;;;20.24;45.89;98853.78;4756511;30;20056;-93
2022/06/17 12:13:56;;;;;;;0.30;0.30;;;;;;;20.19;45.13;98879.38;4745216;30;20075;-93
2022/06/17 12:16:30;;;;;;;0.30;0.30;;;;;;;20.10;44.55;98870.28;4737115;30;20064;-91
2022/06/17 12:18:58;;;;;;;0.30;0.30;;;;;;;19.62;48.43;98892.69;4753850;30;20045;-90
2022/06/17 12:21:33;;;;;;;0.30;0.30;;;;;;;19.12;51.26;98901.66;4745564;30;20139;-88
2022/06/17 12:24:04;;;;;;;0.30;0.30;;;;;;;18.98;52.38;98893.44;4736076;30;20064;-90
2022/06/17 12:26:51;;;;;;;0.30;0.30;;;;;;;19.23;52.64;98902.28;4750953;30;20064;-92
2022/06/17 12:29:21;;;;;;;;;;;;;;;19.88;51.23;98907.50;4751778;30;20081;-92
2022/06/17 12:32:14;;;;;;;0.40;0.40;;;;;;;19.87;51.52;98899.56;4753590;30;19930;-92
2022/06/17 12:35:17;;;;;;;0.40;0.40;;;;;;;19.71;52.03;98899.09;4751958;30;20155;-91
2022/06/17 12:38:01;;;;;;;0.40;0.40;;;;;;;19.83;52.86;98893.91;4768144;30;20057;-93
2022/06/17 12:40:34;;;;;;;0.40;0.40;;;;;;;20.20;51.80;98889.22;4752800;30;20080;-92
2022/06/17 12:43:14;;;;;;;0.50;0.50;;;;;;;21.27;49.32;98885.63;4746856;30;20068;-91
2022/06/17 12:45:49;;;;;;;0.50;0.50;;;;;;;21.45;48.51;98883.78;4745740;30;20056;-92
2022/06/17 12:53:13;;;;;;;0.40;0.40;;;;;;;21.65;48.08;98874.13;4728855;30;20477;-94
2022/06/17 12:54:46;;;;;;;0.30;0.30;;;;;;;20.98;50.28;98870.50;4757503;30;20083;-95
2022/06/17 12:57:41;;;;;;;0.30;0.30;;;;;;;20.89;50.52;98864.19;4753060;30;20540;-94
2022/06/17 13:00:08;;;;;;;0.30;0.30;;;;;;;20.74;51.23;98873.63;4752736;30;20056;-94
2022/06/17 13:02:44;;;;;;;0.30;0.30;;;;;;;21.03;50.93;98869.56;4751183;30;20088;-94
2022/06/17 13:05:46;;;;;;;0.30;0.30;;;;;;;21.29;50.70;98871.59;4748925;30;20118;-96
2022/06/17 13:08:35;;;;;;;0.40;0.40;;;;;;;21.25;50.18;98885.16;4752825;30;20056;-94
2022/06/17 13:11:03;;;;;;;0.40;0.40;;;;;;;21.61;50.47;98887.69;4743777;30;20071;-91
2022/06/17 13:13:58;;;;;;;0.50;0.50;;;;;;;23.19;47.28;98891.88;4740849;30;20095;-90
2022/06/17 13:16:32;;;;;;;0.50;0.50;;;;;;;24.39;43.47;98891.41;4737713;30;20072;-88
2022/06/17 13:19:19;;;;;;;0.30;0.30;;;;;;;24.70;42.70;98895.66;4737090;30;20601;-91
2022/06/17 13:21:56;;;;;;;0.60;0.60;;;;;;;24.95;41.97;98893.75;4738772;30;20155;-90
2022/06/17 13:24:39;;;;;;;0.50;0.50;;;;;;;25.03;41.44;98895.59;4753154;30;20060;-90
2022/06/17 13:27:37;;;;;;;0.50;0.50;;;;;;;26.04;40.65;98894.09;4739449;30;20127;-91
2022/06/17 13:30:06;;;;;;;0.50;0.50;;;;;;;27.09;37.96;98897.72;4737397;30;20147;-90
2022/06/17 13:32:39;;;;;;;0.50;0.50;;;;;;;27.36;36.25;98896.06;4739903;30;20056;-90
2022/06/17 13:35:12;;;;;;;0.50;0.50;;;;;;;26.88;35.62;98903.53;4737501;30;20063;-88